createdAt,value
2023-03-18T00:00:21.224Z,9.99
2023-03-18T00:06:41.222Z,9.96
2023-03-18T00:13:04.242Z,9.96
2023-03-18T00:19:24.259Z,9.93
2023-03-18T00:25:47.230Z,9.93
2023-03-18T00:32:07.182Z,9.95
2023-03-18T00:38:30.218Z,9.96
2023-03-18T00:44:50.183Z,9.98
2023-03-18T00:51:13.182Z,10
2023-03-18T00:57:33.281Z,10.01
2023-03-18T01:03:56.160Z,10.03
2023-03-18T01:10:16.209Z,10.04
2023-03-18T01:16:39.229Z,10.06
2023-03-18T01:22:59.231Z,10.07
2023-03-18T01:29:22.201Z,10.07
2023-03-18T01:35:42.318Z,10.06
2023-03-18T01:42:05.212Z,9.99
2023-03-18T01:48:25.165Z,9.93
2023-03-18T01:54:48.212Z,9.87
2023-03-18T02:01:08.182Z,9.83
2023-03-18T02:07:31.149Z,9.8
2023-03-18T02:13:51.246Z,9.78
2023-03-18T02:20:14.190Z,9.73
2023-03-18T02:26:34.204Z,9.68
2023-03-18T02:32:57.223Z,9.61
2023-03-18T02:39:17.222Z,9.57
2023-03-18T02:45:40.174Z,9.51
2023-03-18T02:52:00.193Z,9.46
2023-03-18T02:58:23.166Z,9.43
2023-03-18T03:04:43.215Z,9.39
2023-03-18T03:11:06.213Z,9.35
2023-03-18T03:17:26.185Z,9.3
2023-03-18T03:23:49.187Z,9.27
2023-03-18T03:30:09.186Z,9.23
2023-03-18T03:36:32.168Z,9.15
2023-03-18T03:42:52.177Z,9.08
2023-03-18T03:49:15.192Z,9.05
2023-03-18T03:55:35.221Z,9.01
2023-03-18T04:01:58.175Z,8.93
2023-03-18T04:08:18.275Z,8.84
2023-03-18T04:14:41.158Z,8.74
2023-03-18T04:21:01.225Z,8.67
2023-03-18T04:27:24.188Z,8.63
2023-03-18T04:50:11.717Z,8.48
2023-03-18T04:56:31.151Z,8.46
2023-03-18T05:02:54.164Z,8.38
2023-03-18T05:09:14.187Z,8.26
2023-03-18T05:15:37.171Z,8.18
2023-03-18T05:21:57.229Z,8.08
2023-03-18T05:28:20.183Z,8.04
2023-03-18T05:34:40.201Z,8.05
2023-03-18T05:41:03.192Z,8.02
2023-03-18T05:47:23.205Z,8.06
2023-03-18T05:53:46.258Z,8.09
2023-03-18T06:00:06.226Z,8.1
2023-03-18T06:06:29.266Z,8.07
2023-03-18T06:12:49.242Z,8.1
2023-03-18T06:19:12.233Z,8.18
2023-03-18T06:25:32.540Z,8.27
2023-03-18T06:31:55.242Z,8.43
2023-03-18T06:38:15.188Z,8.64
2023-03-18T06:44:38.260Z,8.84
2023-03-18T06:50:58.190Z,9.01
2023-03-18T06:57:21.243Z,9.2
2023-03-18T07:03:41.214Z,9.46
2023-03-18T07:10:04.247Z,9.74
2023-03-18T07:16:24.326Z,10.04
2023-03-18T07:22:47.237Z,10.34
2023-03-18T07:29:07.297Z,10.6
2023-03-18T07:35:30.326Z,10.88
2023-03-18T07:41:50.259Z,11.25
2023-03-18T07:48:13.170Z,11.66
2023-03-18T07:54:33.162Z,11.98
2023-03-18T08:00:56.234Z,12.25
2023-03-18T08:07:16.248Z,12.44
2023-03-18T08:13:39.181Z,12.68
2023-03-18T08:19:59.203Z,12.84
2023-03-18T08:26:22.289Z,12.92
2023-03-18T08:32:42.237Z,12.99
2023-03-18T08:39:05.226Z,13.14
2023-03-18T08:45:25.157Z,13.29
2023-03-18T08:51:48.179Z,13.41
2023-03-18T08:58:08.214Z,13.61
2023-03-18T09:04:31.199Z,13.83
2023-03-18T09:10:51.194Z,14.13
2023-03-18T09:17:14.305Z,14.4
2023-03-18T09:23:34.190Z,14.65
2023-03-18T09:29:57.185Z,14.82
2023-03-18T09:36:17.222Z,15.14
2023-03-18T09:42:40.180Z,15.39
2023-03-18T09:49:00.154Z,15.51
2023-03-18T09:55:23.198Z,15.61
2023-03-18T10:01:43.334Z,15.82
2023-03-18T10:18:11.288Z,16.19
2023-03-18T10:24:31.161Z,16.34
2023-03-18T10:30:54.215Z,16.57
2023-03-18T10:37:14.229Z,16.82
2023-03-18T10:43:37.152Z,17.16
2023-03-18T10:49:57.182Z,17.16
2023-03-18T10:56:20.598Z,17.37
2023-03-18T11:02:40.177Z,17.5
2023-03-18T11:09:03.160Z,17.51
2023-03-18T11:15:23.207Z,17.64
2023-03-18T11:21:46.175Z,17.85
2023-03-18T11:28:07.452Z,17.82
2023-03-18T11:34:30.420Z,17.65
2023-03-18T11:40:50.255Z,17.53
2023-03-18T11:47:13.162Z,17.51
2023-03-18T11:53:33.199Z,17.47
2023-03-18T11:59:56.152Z,17.57
2023-03-18T12:06:16.482Z,17.88
2023-03-18T12:12:39.213Z,18.09
2023-03-18T12:18:59.183Z,18.26
2023-03-18T12:25:22.179Z,18.41
2023-03-18T12:31:42.259Z,18.5
2023-03-18T12:38:05.214Z,18.48
2023-03-18T12:44:25.371Z,18.49
2023-03-18T12:50:48.187Z,18.72
2023-03-18T12:57:08.183Z,18.69
2023-03-18T13:03:31.160Z,18.61
2023-03-18T13:09:51.218Z,18.55
2023-03-18T13:16:14.180Z,18.44
2023-03-18T13:22:34.165Z,18.51
2023-03-18T13:28:57.200Z,18.56
2023-03-18T13:35:17.152Z,18.47
2023-03-18T13:41:40.218Z,18.34
2023-03-18T13:48:00.174Z,18.17
2023-03-18T13:54:23.181Z,18.12
2023-03-18T14:00:43.193Z,17.71
2023-03-18T14:07:06.177Z,17.2
2023-03-18T14:13:26.378Z,17.04
2023-03-18T14:19:49.146Z,17.17
2023-03-18T14:26:09.194Z,17.25
2023-03-18T14:32:32.206Z,17.18
2023-03-18T14:38:52.172Z,17.17
2023-03-18T14:45:15.227Z,17.31
2023-03-18T14:51:35.150Z,17.44
2023-03-18T14:57:58.208Z,17.54
2023-03-18T15:04:18.177Z,17.73
2023-03-18T15:10:41.467Z,18.09
2023-03-18T15:17:01.479Z,18.34
2023-03-18T15:23:24.196Z,18.59
2023-03-18T15:29:44.193Z,19.02
2023-03-18T15:36:07.195Z,18.89
2023-03-18T15:42:27.207Z,18.48
2023-03-18T15:59:38.397Z,17.94
2023-03-18T16:05:58.250Z,17.71
2023-03-18T16:12:21.166Z,17.53
2023-03-18T16:18:41.193Z,17.46
2023-03-18T16:25:04.440Z,17.42
2023-03-18T16:31:24.252Z,17.31
2023-03-18T16:37:47.197Z,17.17
2023-03-18T16:44:07.148Z,17.06
2023-03-18T16:50:30.165Z,17.04
2023-03-18T16:56:50.223Z,17.12
2023-03-18T17:03:13.194Z,17.23
2023-03-18T17:09:33.170Z,17.28
2023-03-18T17:15:56.229Z,17.22
2023-03-18T17:22:16.184Z,17.09
2023-03-18T17:28:39.230Z,16.87
2023-03-18T17:34:59.226Z,16.63
2023-03-18T17:41:22.171Z,16.43
2023-03-18T17:47:42.186Z,16.22
2023-03-18T17:54:05.180Z,16.03
2023-03-18T18:00:25.158Z,15.83
2023-03-18T18:06:49.230Z,15.63
2023-03-18T18:13:08.169Z,15.45
2023-03-18T18:19:31.197Z,15.28
2023-03-18T18:25:51.195Z,15.08
2023-03-18T18:32:14.178Z,14.8
2023-03-18T18:38:34.177Z,14.44
2023-03-18T18:44:57.192Z,14.06
2023-03-18T18:51:17.218Z,13.74
2023-03-18T18:57:40.167Z,13.48
2023-03-18T19:04:00.194Z,13.34
2023-03-18T19:10:23.189Z,13.23
2023-03-18T19:16:43.144Z,13.1
2023-03-18T19:23:06.474Z,12.94
2023-03-18T19:29:26.403Z,12.87
2023-03-18T19:35:49.228Z,12.77
2023-03-18T19:42:09.144Z,12.61
2023-03-18T19:48:32.178Z,12.48
2023-03-18T19:54:52.212Z,12.39
2023-03-18T20:01:15.208Z,12.28
2023-03-18T20:07:35.267Z,12.18
2023-03-18T20:13:58.161Z,12.14
2023-03-18T20:20:18.170Z,12.08
2023-03-18T20:26:41.220Z,12.02
2023-03-18T20:33:01.197Z,11.93
2023-03-18T20:39:24.156Z,11.86
2023-03-18T20:45:44.232Z,11.82
2023-03-18T20:52:07.159Z,11.75
2023-03-18T20:58:27.192Z,11.61
2023-03-18T21:04:50.201Z,11.53
2023-03-18T21:11:10.173Z,11.52
2023-03-18T21:17:33.211Z,11.49
2023-03-18T21:33:05.297Z,11.5
2023-03-18T21:39:25.147Z,11.45
2023-03-18T21:45:48.154Z,11.41
2023-03-18T21:52:08.216Z,11.42
2023-03-18T21:58:31.165Z,11.42
2023-03-18T22:04:51.187Z,11.41
2023-03-18T22:11:14.198Z,11.37
2023-03-18T22:17:34.158Z,11.33
2023-03-18T22:23:57.188Z,11.28
2023-03-18T22:30:17.174Z,11.27
2023-03-18T22:36:40.200Z,11.27
2023-03-18T22:43:00.172Z,11.25
2023-03-18T22:49:23.204Z,11.23
2023-03-18T22:55:43.194Z,11.21
2023-03-18T23:20:00.179Z,11.05
2023-03-18T23:26:20.186Z,11.06
2023-03-18T23:32:43.238Z,11.11
2023-03-18T23:39:03.219Z,11.13
2023-03-18T23:45:26.320Z,11.15
2023-03-18T23:51:46.267Z,11.17
2023-03-18T23:58:09.214Z,11.21
